Time;durP1;ratioP1;P1;durP2;ratioP2;P2;SDS_P1;SDS_P2;PMS_P1;PMS_P2;Temp;Humidity;BMP_temperature;BMP_pressure;BME280_temperature;BME280_humidity;BME280_pressure;Samples;Min_cycle;Max_cycle;Signal;HPM_P1;HPM_P2
2023/05/28 00:02:18;;;;;;;17.17;6.80;;;14.70;99.90;;;;;;7285601;19;20188;-80
2023/05/28 00:04:44;;;;;;;14.53;6.83;;;14.70;99.90;;;;;;7285458;19;20196;-81
2023/05/28 00:07:10;;;;;;;15.33;6.80;;;14.60;99.90;;;;;;7285797;19;20650;-81
2023/05/28 00:09:37;;;;;;;20.30;7.50;;;14.70;99.90;;;;;;7307378;19;20184;-80
2023/05/28 00:12:03;;;;;;;15.50;6.50;;;14.70;99.90;;;;;;7287498;19;20196;-80
2023/05/28 00:14:29;;;;;;;16.93;6.93;;;14.70;99.90;;;;;;7284554;19;20597;-81
2023/05/28 00:16:56;;;;;;;15.33;7.00;;;14.60;99.90;;;;;;7286264;19;20226;-80
2023/05/28 00:19:22;;;;;;;17.80;6.27;;;14.60;99.90;;;;;;7284982;19;20196;-81
2023/05/28 00:21:47;;;;;;;19.57;7.00;;;14.60;99.90;;;;;;7284965;19;20274;-80
2023/05/28 00:24:13;;;;;;;20.77;6.63;;;14.60;99.90;;;;;;7284365;19;20676;-80
2023/05/28 00:26:39;;;;;;;19.53;6.63;;;14.50;99.90;;;;;;7285397;19;20564;-80
2023/05/28 00:29:05;;;;;;;17.37;7.13;;;14.50;99.90;;;;;;7307032;19;20292;-80
2023/05/28 00:31:30;;;;;;;17.03;6.83;;;14.40;99.90;;;;;;7285454;19;20245;-80
2023/05/28 00:33:56;;;;;;;16.03;7.10;;;14.40;99.90;;;;;;7284715;19;20592;-80
2023/05/28 00:36:22;;;;;;;18.03;6.87;;;14.40;99.90;;;;;;7284451;19;20564;-80
2023/05/28 00:38:48;;;;;;;16.83;7.13;;;14.40;99.90;;;;;;7284029;19;20219;-80
2023/05/28 00:41:19;;;;;;;15.77;7.63;;;14.40;99.90;;;;;;7284623;19;20287;-80
2023/05/28 00:43:46;;;;;;;17.43;7.00;;;14.40;99.90;;;;;;7283894;19;20641;-80
2023/05/28 00:46:11;;;;;;;17.83;7.23;;;14.40;99.90;;;;;;7283777;19;20196;-80
2023/05/28 00:48:38;;;;;;;17.57;6.93;;;14.30;99.90;;;;;;7292715;19;20203;-80
2023/05/28 00:51:04;;;;;;;16.50;7.10;;;14.20;99.90;;;;;;7305562;19;20300;-80
2023/05/28 00:53:30;;;;;;;15.40;6.53;;;14.10;99.90;;;;;;7283510;19;20186;-80
2023/05/28 00:55:57;;;;;;;18.50;6.73;;;14.20;99.90;;;;;;7284492;19;20206;-80
2023/05/28 00:58:24;;;;;;;14.43;6.27;;;14.20;99.90;;;;;;7282831;19;20564;-80
2023/05/28 01:00:50;;;;;;;16.97;6.87;;;14.20;99.90;;;;;;7285400;19;20199;-80
2023/05/28 01:03:16;;;;;;;16.17;6.57;;;14.10;99.90;;;;;;7283357;19;20190;-80
2023/05/28 01:05:42;;;;;;;16.87;6.60;;;14.00;99.90;;;;;;7284279;19;20202;-81
2023/05/28 01:08:08;;;;;;;14.97;6.40;;;13.80;99.90;;;;;;7287722;19;20187;-80
2023/05/28 01:10:36;;;;;;;17.07;7.23;;;13.80;99.90;;;;;;7304626;19;20194;-80
2023/05/28 01:13:04;;;;;;;17.00;6.97;;;13.70;99.90;;;;;;7284249;19;20277;-81
2023/05/28 01:15:30;;;;;;;16.57;7.33;;;13.70;99.90;;;;;;7284402;19;20188;-80
2023/05/28 01:17:59;;;;;;;16.17;7.37;;;13.80;99.90;;;;;;7282156;19;20222;-81
2023/05/28 01:20:31;;;;;;;15.43;6.50;;;13.80;99.90;;;;;;7284605;19;20189;-80
2023/05/28 01:23:05;;;;;;;13.53;6.73;;;13.60;99.90;;;;;;7283751;19;20200;-80
2023/05/28 01:25:33;;;;;;;15.50;6.70;;;13.30;99.90;;;;;;7282110;19;20198;-80
2023/05/28 01:28:03;;;;;;;16.13;7.33;;;13.20;99.90;;;;;;7283812;19;20212;-80
2023/05/28 01:30:29;;;;;;;19.70;7.70;;;13.20;99.90;;;;;;7282815;19;20204;-80
2023/05/28 01:32:55;;;;;;;16.30;7.33;;;13.30;99.90;;;;;;7283952;19;20639;-80
2023/05/28 01:35:20;;;;;;;16.73;7.33;;;13.30;99.90;;;;;;7281870;19;20191;-80
2023/05/28 01:37:49;;;;;;;18.17;7.30;;;13.30;99.90;;;;;;7282449;19;20245;-80
2023/05/28 01:40:17;;;;;;;18.23;6.93;;;13.40;99.90;;;;;;7283174;19;20680;-81
2023/05/28 01:42:45;;;;;;;15.00;7.00;;;13.50;99.90;;;;;;7282382;19;20198;-80
2023/05/28 01:45:13;;;;;;;22.77;7.20;;;13.60;99.90;;;;;;7280255;19;20650;-80
2023/05/28 01:47:41;;;;;;;14.70;7.07;;;13.60;99.90;;;;;;7282645;19;20199;-81
2023/05/28 01:50:08;;;;;;;13.33;6.37;;;13.40;99.90;;;;;;7296777;19;20207;-80
2023/05/28 01:52:33;;;;;;;15.57;7.13;;;13.30;99.90;;;;;;7304510;19;20197;-81
2023/05/28 01:54:59;;;;;;;16.13;7.27;;;13.30;99.90;;;;;;7281838;19;20199;-80
2023/05/28 01:57:25;;;;;;;15.10;7.63;;;13.30;99.90;;;;;;7281303;19;20304;-80
2023/05/28 01:59:50;;;;;;;21.53;7.80;;;13.40;99.90;;;;;;7280908;19;20561;-80
2023/05/28 02:02:17;;;;;;;18.70;7.97;;;13.60;99.90;;;;;;7281331;19;20195;-80
2023/05/28 02:04:43;;;;;;;19.07;8.10;;;13.70;99.90;;;;;;7279689;19;20666;-80
2023/05/28 02:07:08;;;;;;;19.70;7.67;;;13.80;99.90;;;;;;7283673;19;20271;-80
2023/05/28 02:09:34;;;;;;;16.80;7.17;;;13.70;99.90;;;;;;7306310;19;20185;-81
2023/05/28 02:12:02;;;;;;;16.50;7.53;;;13.70;99.90;;;;;;7288083;19;20573;-80
2023/05/28 02:14:29;;;;;;;17.40;7.63;;;13.60;99.90;;;;;;7288616;19;20183;-80
2023/05/28 02:16:55;;;;;;;20.13;7.73;;;13.60;99.90;;;;;;7288248;19;20187;-80
2023/05/28 02:19:21;;;;;;;17.17;7.93;;;13.50;99.90;;;;;;7286079;19;20192;-80
2023/05/28 02:21:47;;;;;;;18.87;7.57;;;13.50;99.90;;;;;;7288348;19;20268;-80
2023/05/28 02:24:13;;;;;;;18.37;8.00;;;13.50;99.90;;;;;;7287112;19;20188;-81
2023/05/28 02:26:38;;;;;;;20.90;8.30;;;13.40;99.90;;;;;;7287967;19;20197;-81
2023/05/28 02:29:07;;;;;;;16.63;7.83;;;13.40;99.90;;;;;;7302743;19;20209;-80
2023/05/28 02:31:35;;;;;;;15.70;7.90;;;13.30;99.90;;;;;;7310072;19;20198;-80
2023/05/28 02:34:01;;;;;;;17.03;7.40;;;13.30;99.90;;;;;;7287599;19;20245;-80
2023/05/28 02:36:27;;;;;;;17.90;8.30;;;13.20;99.90;;;;;;7288177;19;20717;-81
2023/05/28 02:38:54;;;;;;;20.87;8.77;;;13.20;99.90;;;;;;7286539;19;20187;-80
2023/05/28 02:41:20;;;;;;;19.70;8.67;;;13.30;99.90;;;;;;7286345;19;20211;-80
2023/05/28 02:43:48;;;;;;;22.93;8.27;;;13.30;99.90;;;;;;7286610;19;20665;-81
2023/05/28 02:46:14;;;;;;;23.13;8.77;;;13.20;99.90;;;;;;7288457;19;20187;-80
2023/05/28 02:48:40;;;;;;;19.13;8.97;;;13.00;99.90;;;;;;7287317;19;20178;-80
2023/05/28 02:51:10;;;;;;;20.03;8.43;;;12.90;99.90;;;;;;7286562;19;20185;-81
2023/05/28 02:54:10;;;;;;;18.50;8.33;;;12.80;99.90;;;;;;7267403;19;20185;-80
2023/05/28 02:56:36;;;;;;;21.10;8.43;;;12.80;99.90;;;;;;7309580;19;20261;-80
2023/05/28 02:59:02;;;;;;;22.00;8.73;;;12.80;99.90;;;;;;7287222;19;20256;-80
2023/05/28 03:01:28;;;;;;;21.40;8.93;;;12.70;99.90;;;;;;7287669;19;20191;-81
2023/05/28 03:03:55;;;;;;;17.80;8.23;;;12.80;99.90;;;;;;7287388;19;20217;-80
2023/05/28 03:06:22;;;;;;;18.23;8.80;;;12.70;99.90;;;;;;7287208;19;20186;-80
2023/05/28 03:08:53;;;;;;;18.80;8.63;;;12.80;99.90;;;;;;7286723;19;20325;-80
2023/05/28 03:11:20;;;;;;;18.93;8.70;;;12.70;99.90;;;;;;7285807;19;21093;-80
2023/05/28 03:13:46;;;;;;;17.63;8.13;;;12.70;99.90;;;;;;7287317;19;20197;-80
2023/05/28 03:16:12;;;;;;;20.83;9.07;;;12.70;99.90;;;;;;7287019;19;20213;-80
2023/05/28 03:18:38;;;;;;;18.50;8.60;;;12.60;99.90;;;;;;7295379;19;20796;-80
2023/05/28 03:21:05;;;;;;;20.23;9.03;;;12.60;99.90;;;;;;7309483;19;20206;-80
2023/05/28 03:23:32;;;;;;;17.20;8.93;;;12.50;99.90;;;;;;7287508;19;20701;-80
2023/05/28 03:26:17;;;;;;;20.57;9.43;;;12.60;99.90;;;;;;7184908;19;2004855;-80
2023/05/28 03:28:43;;;;;;;21.90;9.30;;;12.70;99.90;;;;;;7287738;19;20698;-81
2023/05/28 03:31:29;;;;;;;18.37;9.03;;;12.80;99.90;;;;;;7285890;19;20612;-80
2023/05/28 03:33:56;;;;;;;20.70;9.33;;;12.80;99.90;;;;;;7287627;19;20180;-80
2023/05/28 03:36:24;;;;;;;22.50;8.97;;;12.70;99.90;;;;;;7286397;19;20252;-81
2023/05/28 03:38:50;;;;;;;20.83;8.87;;;12.70;99.90;;;;;;7284560;19;20186;-80
2023/05/28 03:41:16;;;;;;;20.50;9.00;;;12.80;99.90;;;;;;7287316;19;20186;-80
2023/05/28 03:43:42;;;;;;;24.90;10.53;;;12.80;99.90;;;;;;7283820;19;20177;-80
2023/05/28 03:46:08;;;;;;;23.17;9.43;;;12.80;99.90;;;;;;7290975;19;20662;-80
2023/05/28 03:48:36;;;;;;;21.97;8.70;;;12.90;99.90;;;;;;7306780;19;20203;-79
2023/05/28 03:51:04;;;;;;;22.00;9.03;;;12.90;99.90;;;;;;7294021;19;20194;-80
2023/05/28 03:53:31;;;;;;;21.33;9.37;;;12.90;99.90;;;;;;7286081;19;20180;-80
2023/05/28 03:55:56;;;;;;;20.67;9.33;;;12.90;99.90;;;;;;7285002;19;20270;-81
2023/05/28 03:58:24;;;;;;;21.07;9.80;;;13.00;99.90;;;;;;7285401;19;20257;-81
2023/05/28 04:00:50;;;;;;;23.23;9.50;;;13.10;99.90;;;;;;7286087;19;20195;-81
2023/05/28 04:03:17;;;;;;;20.53;10.00;;;13.00;99.90;;;;;;7284482;19;20617;-81
2023/05/28 04:05:45;;;;;;;23.13;9.70;;;13.10;99.90;;;;;;7285443;19;20600;-80
2023/05/28 04:08:11;;;;;;;20.13;9.30;;;13.20;99.90;;;;;;7285382;19;20198;-80
2023/05/28 04:10:37;;;;;;;23.10;9.83;;;13.20;99.90;;;;;;7299791;19;20258;-81
2023/05/28 04:13:03;;;;;;;23.87;10.23;;;13.20;99.90;;;;;;7298296;19;20185;-81
2023/05/28 04:15:30;;;;;;;18.30;9.47;;;13.30;99.90;;;;;;7285735;19;20187;-81
2023/05/28 04:17:56;;;;;;;21.57;9.37;;;13.30;99.90;;;;;;7284740;19;20187;-80
2023/05/28 04:20:21;;;;;;;23.57;9.63;;;13.40;99.90;;;;;;7285356;19;20517;-81
2023/05/28 04:22:47;;;;;;;22.93;10.20;;;13.50;99.90;;;;;;7284315;19;20196;-80
2023/05/28 04:25:13;;;;;;;25.00;10.07;;;13.40;99.90;;;;;;7284385;19;20189;-81
2023/05/28 04:27:41;;;;;;;23.47;10.40;;;13.50;99.90;;;;;;7286456;19;20530;-81
2023/05/28 04:30:08;;;;;;;22.30;9.57;;;13.60;99.90;;;;;;7297770;19;20215;-81
2023/05/28 04:32:34;;;;;;;27.83;10.30;;;13.70;99.90;;;;;;7304546;19;20191;-80
2023/05/28 04:35:03;;;;;;;22.23;10.13;;;14.10;99.90;;;;;;7285242;19;20258;-81
2023/05/28 04:37:30;;;;;;;22.53;9.60;;;14.70;99.90;;;;;;7283709;19;20230;-81
2023/05/28 04:39:56;;;;;;;17.97;8.23;;;15.20;99.90;;;;;;7283154;19;20218;-81
2023/05/28 04:42:24;;;;;;;15.10;8.10;;;15.70;99.90;;;;;;7281843;19;20203;-80
2023/05/28 04:44:53;;;;;;;18.53;7.87;;;16.50;99.90;;;;;;7283038;19;20192;-81
2023/05/28 04:47:19;;;;;;;15.17;7.63;;;17.40;99.90;;;;;;7283279;19;20192;-81
2023/05/28 04:49:45;;;;;;;15.87;7.47;;;18.30;99.90;;;;;;7282890;19;20189;-81
2023/05/28 04:52:10;;;;;;;18.67;8.03;;;19.10;99.90;;;;;;7281951;19;20264;-81
2023/05/28 04:54:36;;;;;;;16.73;7.37;;;19.90;99.90;;;;;;7305524;19;20689;-80
2023/05/28 04:57:05;;;;;;;17.00;8.27;;;20.60;99.90;;;;;;7283153;19;20656;-81
2023/05/28 04:59:32;;;;;;;15.67;8.47;;;21.20;99.90;;;;;;7282387;19;20216;-81
2023/05/28 05:01:59;;;;;;;18.33;7.87;;;22.10;99.90;;;;;;7280785;19;20690;-81
2023/05/28 05:04:25;;;;;;;16.63;7.97;;;22.80;99.90;;;;;;7281669;19;20189;-81
2023/05/28 05:06:51;;;;;;;15.63;8.30;;;23.60;99.90;;;;;;7283826;19;20223;-80
2023/05/28 05:09:19;;;;;;;16.53;8.37;;;24.20;99.90;;;;;;7282407;19;20189;-81
2023/05/28 05:11:46;;;;;;;19.73;8.30;;;24.70;99.90;;;;;;7281994;19;20185;-81
2023/05/28 05:14:12;;;;;;;15.98;8.13;;;25.20;99.90;;;;;;7282480;19;20192;-81
2023/05/28 05:16:37;;;;;;;19.55;9.32;;;25.80;99.90;;;;;;7301943;19;20185;-81
2023/05/28 05:19:04;;;;;;;19.50;9.43;;;26.30;99.90;;;;;;7299612;19;20667;-81
2023/05/28 05:21:30;;;;;;;17.83;8.35;;;26.40;99.90;;;;;;7283669;19;20204;-81
2023/05/28 05:23:55;;;;;;;16.65;8.30;;;26.50;99.90;;;;;;7282410;19;20260;-81
2023/05/28 05:26:21;;;;;;;18.95;8.00;;;26.80;99.90;;;;;;7281478;19;20648;-81
2023/05/28 05:28:47;;;;;;;14.68;7.50;;;27.10;99.90;;;;;;7282972;19;20196;-81
2023/05/28 05:31:13;;;;;;;16.70;7.80;;;27.20;99.90;;;;;;7281690;19;20177;-81
2023/05/28 05:33:41;;;;;;;19.45;7.93;;;27.20;99.90;;;;;;7281489;19;20206;-82
2023/05/28 05:36:27;;;;;;;18.70;8.57;;;27.40;99.90;;;;;;7281143;19;20244;-79
2023/05/28 05:39:24;;;;;;;16.08;9.10;;;27.90;99.90;;;;;;7178995;19;2004647;-79
2023/05/28 05:42:10;;;;;;;14.07;8.57;;;28.40;99.60;;;;;;7262910;19;20185;-80
2023/05/28 05:44:43;;;;;;;15.75;8.77;;;28.70;99.40;;;;;;7290041;19;20212;-81
2023/05/28 05:47:08;;;;;;;17.15;8.90;;;29.10;98.40;;;;;;7303347;19;20701;-81
2023/05/28 05:49:34;;;;;;;17.33;8.88;;;29.50;97.10;;;;;;7316540;19;20210;-81
2023/05/28 05:52:00;;;;;;;19.02;9.43;;;29.90;95.80;;;;;;7299864;19;20565;-81
2023/05/28 05:54:27;;;;;;;16.52;9.18;;;30.00;95.00;;;;;;7301131;19;20222;-81
2023/05/28 05:56:53;;;;;;;17.38;9.50;;;30.10;93.40;;;;;;7290989;19;20188;-81
2023/05/28 05:59:20;;;;;;;19.85;10.23;;;29.50;93.80;;;;;;7287706;19;20325;-81
2023/05/28 06:01:47;;;;;;;19.60;10.18;;;28.40;94.80;;;;;;7289792;19;20196;-81
2023/05/28 06:04:12;;;;;;;22.48;10.88;;;28.00;95.80;;;;;;7287698;19;20193;-80
2023/05/28 06:06:41;;;;;;;19.83;9.68;;;27.70;95.50;;;;;;7287957;19;20531;-80
2023/05/28 06:09:26;;;;;;;23.35;11.20;;;27.60;96.20;;;;;;7287090;19;20204;-80
2023/05/28 06:11:55;;;;;;;23.25;10.73;;;27.50;96.80;;;;;;7287880;19;20185;-81
2023/05/28 06:14:21;;;;;;;19.70;10.65;;;27.60;95.80;;;;;;7288854;19;20951;-80
2023/05/28 06:16:47;;;;;;;21.73;10.98;;;27.60;96.00;;;;;;7288003;19;20189;-80
2023/05/28 06:19:13;;;;;;;20.13;10.40;;;27.40;96.10;;;;;;7287918;19;20556;-81
2023/05/28 06:21:38;;;;;;;21.60;10.30;;;26.90;96.60;;;;;;7300433;19;20204;-80
2023/05/28 06:24:06;;;;;;;21.40;10.23;;;27.20;96.90;;;;;;7310271;19;20197;-80
2023/05/28 06:26:32;;;;;;;21.67;10.10;;;27.80;96.60;;;;;;7288384;19;20260;-80
2023/05/28 06:28:58;;;;;;;22.67;10.40;;;27.70;94.70;;;;;;7288142;19;20202;-80
2023/05/28 06:31:25;;;;;;;21.42;9.80;;;27.50;96.00;;;;;;7287505;19;20184;-81
2023/05/28 06:33:52;;;;;;;21.88;10.60;;;27.10;97.40;;;;;;7287520;19;20614;-81
2023/05/28 06:36:18;;;;;;;22.25;10.68;;;27.20;96.60;;;;;;7287645;19;20189;-81
2023/05/28 06:38:44;;;;;;;20.73;10.55;;;26.80;96.60;;;;;;7286736;19;20181;-80
2023/05/28 06:41:10;;;;;;;19.98;10.23;;;27.00;97.00;;;;;;7287533;19;20185;-80
2023/05/28 06:43:46;;;;;;;21.15;10.82;;;27.10;97.00;;;;;;7286800;19;20364;-80
2023/05/28 06:46:30;;;;;;;24.77;10.85;;;26.70;95.80;;;;;;7286634;19;20196;-81
2023/05/28 06:48:56;;;;;;;21.42;10.35;;;26.90;97.00;;;;;;7286929;19;20181;-79
2023/05/28 06:51:22;;;;;;;21.20;10.38;;;27.00;96.90;;;;;;7287906;19;20197;-79
2023/05/28 06:53:48;;;;;;;22.38;10.30;;;27.40;96.60;;;;;;7286357;19;20646;-79
2023/05/28 06:56:16;;;;;;;22.67;10.30;;;27.50;95.20;;;;;;7285788;19;20220;-79
2023/05/28 06:59:08;;;;;;;19.50;9.88;;;27.20;95.60;;;;;;7278613;19;20252;-80
2023/05/28 07:01:43;;;;;;;17.33;9.30;;;27.00;97.20;;;;;;7286754;19;20180;-80
2023/05/28 07:04:35;;;;;;;21.52;9.90;;;28.10;96.40;;;;;;7286333;19;20188;-81
2023/05/28 07:07:10;;;;;;;16.63;9.45;;;28.40;94.30;;;;;;7270268;19;20176;-80
2023/05/28 07:09:35;;;;;;;22.23;9.93;;;28.50;94.10;;;;;;7308782;19;20219;-80
2023/05/28 07:12:01;;;;;;;20.60;9.93;;;28.40;93.90;;;;;;7285800;19;20181;-80
2023/05/28 07:14:28;;;;;;;17.23;9.35;;;29.10;93.30;;;;;;7285825;19;20198;-80
2023/05/28 07:16:54;;;;;;;18.63;9.85;;;29.80;92.10;;;;;;7287273;19;20686;-80
2023/05/28 07:19:20;;;;;;;20.42;9.65;;;31.50;90.60;;;;;;7285264;19;20185;-80
2023/05/28 07:21:47;;;;;;;18.90;9.38;;;31.50;86.40;;;;;;7286854;19;20181;-79
2023/05/28 07:24:13;;;;;;;19.15;9.55;;;30.80;86.30;;;;;;7285813;19;20193;-80
2023/05/28 07:26:39;;;;;;;16.98;8.60;;;31.60;88.20;;;;;;7291741;19;20192;-80
2023/05/28 07:29:05;;;;;;;16.75;8.38;;;31.50;83.40;;;;;;7307826;19;20193;-80
2023/05/28 07:31:31;;;;;;;17.60;7.95;;;31.70;82.50;;;;;;7285255;19;20184;-80
2023/05/28 07:33:58;;;;;;;19.75;8.38;;;32.20;81.80;;;;;;7285785;19;20238;-80
2023/05/28 07:36:29;;;;;;;16.15;8.07;;;33.00;79.20;;;;;;7285398;19;20180;-80
2023/05/28 07:38:55;;;;;;;20.40;7.88;;;32.50;76.70;;;;;;7285428;19;20286;-81
2023/05/28 07:41:21;;;;;;;16.52;6.63;;;32.00;76.70;;;;;;7285201;19;20628;-80
2023/05/28 07:44:11;;;;;;;16.38;7.15;;;32.80;77.90;;;;;;7264735;19;20205;-80
2023/05/28 07:46:37;;;;;;;16.42;7.13;;;32.30;75.10;;;;;;7308679;19;20197;-80
2023/05/28 07:49:12;;;;;;;15.52;6.40;;;31.90;75.00;;;;;;7263760;19;20537;-80
2023/05/28 07:51:42;;;;;;;15.23;6.38;;;30.80;73.80;;;;;;7284001;19;20256;-80
2023/05/28 07:54:22;;;;;;;15.50;6.38;;;30.60;77.40;;;;;;7285709;19;20189;-80
2023/05/28 07:56:48;;;;;;;14.80;6.00;;;31.30;76.40;;;;;;7285960;19;20559;-79
2023/05/28 07:59:22;;;;;;;14.02;6.80;;;32.20;75.20;;;;;;7283829;19;20192;-80
2023/05/28 08:01:49;;;;;;;17.42;6.15;;;32.30;72.80;;;;;;7285539;19;20685;-81
2023/05/28 08:04:14;;;;;;;13.85;6.30;;;32.00;72.70;;;;;;7284488;19;20193;-80
2023/05/28 08:06:41;;;;;;;14.85;5.40;;;31.50;72.40;;;;;;7281571;19;20256;-80
2023/05/28 08:09:10;;;;;;;13.05;5.90;;;31.70;72.30;;;;;;7283032;19;20195;-80
2023/05/28 08:11:38;;;;;;;13.82;5.20;;;31.50;73.60;;;;;;7305906;19;20260;-80
2023/05/28 08:14:04;;;;;;;14.52;5.80;;;31.70;73.00;;;;;;7284235;19;20180;-80
2023/05/28 08:16:30;;;;;;;16.30;5.55;;;31.90;74.20;;;;;;7285107;19;20743;-80
2023/05/28 08:19:15;;;;;;;12.32;5.32;;;32.00;70.50;;;;;;7182158;19;2005104;-80
2023/05/28 08:21:43;;;;;;;16.15;5.95;;;31.70;72.70;;;;;;7284656;19;20195;-81
2023/05/28 08:24:10;;;;;;;13.90;5.47;;;32.30;70.20;;;;;;7290715;19;20256;-80
2023/05/28 08:26:37;;;;;;;14.82;5.18;;;31.20;72.60;;;;;;7305760;19;20197;-80
2023/05/28 08:29:04;;;;;;;14.32;5.20;;;31.00;72.20;;;;;;7285209;19;20206;-80
2023/05/28 08:31:33;;;;;;;13.93;5.05;;;31.20;73.50;;;;;;7284072;19;20193;-81
2023/05/28 08:34:19;;;;;;;16.92;5.60;;;31.20;72.00;;;;;;7182062;19;2004683;-79
2023/05/28 08:36:45;;;;;;;13.80;4.85;;;31.30;70.80;;;;;;7283071;19;20252;-80
2023/05/28 08:39:16;;;;;;;13.45;5.00;;;30.70;70.70;;;;;;7283574;19;20184;-79
2023/05/28 08:41:45;;;;;;;11.63;5.30;;;30.50;72.10;;;;;;7282831;19;20300;-79
2023/05/28 08:44:12;;;;;;;14.15;5.30;;;30.50;72.00;;;;;;7283184;19;20210;-79
2023/05/28 08:46:39;;;;;;;12.50;4.60;;;30.30;72.30;;;;;;7304490;19;20187;-79
2023/05/28 08:49:41;;;;;;;12.32;5.43;;;30.90;72.80;;;;;;7283017;19;20189;-80
2023/05/28 08:52:10;;;;;;;14.88;4.93;;;32.30;71.90;;;;;;7281846;19;20228;-80
2023/05/28 08:54:38;;;;;;;12.68;4.85;;;33.20;71.70;;;;;;7283196;19;20210;-79
2023/05/28 08:57:05;;;;;;;13.98;5.28;;;32.60;69.80;;;;;;7283297;19;20194;-78
2023/05/28 08:59:38;;;;;;;15.63;5.75;;;31.50;70.90;;;;;;7281740;19;20184;-79
2023/05/28 09:02:04;;;;;;;15.43;5.30;;;31.00;70.90;;;;;;7283034;19;20187;-77
2023/05/28 09:04:30;;;;;;;13.63;5.22;;;30.60;73.10;;;;;;7281516;19;20271;-78
2023/05/28 09:06:56;;;;;;;11.63;5.50;;;30.40;75.00;;;;;;7282916;19;20578;-79
2023/05/28 09:09:30;;;;;;;14.85;5.28;;;30.90;71.20;;;;;;7283515;19;20178;-79
2023/05/28 09:12:09;;;;;;;14.07;5.25;;;30.90;71.50;;;;;;7281838;19;20205;-80
2023/05/28 09:14:42;;;;;;;13.10;5.15;;;31.30;72.50;;;;;;7284328;19;20198;-80
2023/05/28 09:17:09;;;;;;;15.68;5.43;;;32.40;72.00;;;;;;7281984;19;20186;-80
2023/05/28 09:19:36;;;;;;;15.52;5.20;;;33.10;69.20;;;;;;7289474;19;20214;-80
2023/05/28 09:22:03;;;;;;;13.93;5.35;;;32.40;68.40;;;;;;7290859;19;20264;-80
2023/05/28 09:24:49;;;;;;;15.07;5.57;;;32.00;68.80;;;;;;7186747;19;2004410;-80
2023/05/28 09:27:19;;;;;;;15.70;5.60;;;31.80;68.60;;;;;;7291317;19;20188;-80
2023/05/28 09:29:46;;;;;;;18.98;5.60;;;32.20;67.70;;;;;;7289590;19;20232;-80
2023/05/28 09:32:21;;;;;;;13.63;5.32;;;32.00;67.00;;;;;;7288498;19;20189;-80
2023/05/28 09:34:50;;;;;;;12.48;5.20;;;31.80;69.30;;;;;;7290982;19;20656;-80
2023/05/28 09:37:17;;;;;;;12.52;5.20;;;32.70;69.00;;;;;;7289560;19;20200;-79
2023/05/28 09:39:44;;;;;;;13.45;5.40;;;32.40;67.90;;;;;;7287374;19;20271;-80
2023/05/28 09:42:10;;;;;;;15.50;6.15;;;32.30;67.40;;;;;;7300064;19;20285;-80
2023/05/28 09:44:40;;;;;;;15.63;6.30;;;32.00;67.60;;;;;;7310632;19;20209;-80
2023/05/28 09:47:17;;;;;;;12.55;4.97;;;32.50;68.70;;;;;;7290596;19;20197;-80
2023/05/28 09:49:47;;;;;;;15.50;5.45;;;32.30;68.10;;;;;;7268249;19;20200;-80
2023/05/28 09:52:20;;;;;;;12.35;5.38;;;32.90;68.40;;;;;;7286835;19;20325;-79
2023/05/28 09:54:58;;;;;;;14.02;5.80;;;31.90;66.40;;;;;;7289460;19;20205;-80
2023/05/28 09:57:29;;;;;;;14.05;5.65;;;31.70;68.40;;;;;;7288846;19;20207;-80
2023/05/28 09:59:56;;;;;;;14.65;6.22;;;32.30;66.10;;;;;;7288474;19;20214;-80
2023/05/28 10:02:27;;;;;;;15.50;5.82;;;32.90;66.80;;;;;;7285944;19;20532;-79
2023/05/28 10:04:56;;;;;;;13.10;5.57;;;32.60;67.10;;;;;;7294161;19;20193;-80
2023/05/28 10:07:25;;;;;;;13.45;5.40;;;32.60;67.00;;;;;;7289454;19;20201;-80
2023/05/28 10:09:53;;;;;;;12.75;5.70;;;32.70;66.90;;;;;;7291166;19;20188;-80
2023/05/28 10:12:25;;;;;;;15.40;5.90;;;32.30;66.60;;;;;;7291945;19;20189;-80
2023/05/28 10:14:51;;;;;;;16.13;6.05;;;32.00;67.30;;;;;;7285138;19;20217;-79
2023/05/28 10:17:17;;;;;;;13.57;5.65;;;32.70;67.50;;;;;;7287901;19;20635;-80
2023/05/28 10:19:46;;;;;;;14.00;5.78;;;33.10;64.80;;;;;;7289121;19;20217;-80
2023/05/28 10:22:13;;;;;;;16.42;6.10;;;33.30;62.60;;;;;;7288810;19;20189;-80
2023/05/28 10:24:39;;;;;;;13.30;5.97;;;33.10;64.20;;;;;;7301549;19;20197;-79
2023/05/28 10:27:06;;;;;;;13.23;6.00;;;32.90;64.10;;;;;;7304890;19;20231;-80
2023/05/28 10:29:43;;;;;;;13.45;5.18;;;32.10;63.80;;;;;;7285280;19;20250;-83
2023/05/28 10:32:09;;;;;;;15.00;5.47;;;31.90;66.30;;;;;;7280064;19;20185;-80
2023/05/28 10:34:38;;;;;;;13.60;5.95;;;32.20;67.10;;;;;;7306597;19;20675;-81
2023/05/28 10:37:06;;;;;;;15.57;6.38;;;32.00;63.60;;;;;;7287080;19;20185;-82
2023/05/28 10:39:39;;;;;;;15.13;5.40;;;31.70;64.20;;;;;;7287342;19;20196;-82
2023/05/28 10:42:09;;;;;;;14.70;5.80;;;33.00;64.20;;;;;;7286308;19;20181;-82
2023/05/28 10:44:59;;;;;;;12.75;5.07;;;33.00;62.40;;;;;;7286634;19;20532;-82
2023/05/28 10:47:38;;;;;;;15.20;5.88;;;32.70;61.80;;;;;;7185140;19;2004761;-82
2023/05/28 10:50:15;;;;;;;13.98;5.88;;;33.30;62.40;;;;;;7286673;19;20192;-82
2023/05/28 10:52:41;;;;;;;14.65;5.50;;;33.80;63.10;;;;;;7266766;19;20188;-81
2023/05/28 10:55:12;;;;;;;14.32;5.60;;;34.20;64.90;;;;;;7308528;19;20196;-81
2023/05/28 10:57:48;;;;;;;14.27;5.82;;;33.30;61.80;;;;;;7287080;19;20185;-82
2023/05/28 11:00:24;;;;;;;12.02;5.28;;;32.80;61.30;;;;;;7183026;19;2006289;-82
2023/05/28 11:02:52;;;;;;;15.77;5.63;;;32.50;61.40;;;;;;7286331;19;20227;-82
2023/05/28 11:05:24;;;;;;;14.68;6.05;;;32.70;62.20;;;;;;7286995;19;20218;-81
2023/05/28 11:07:50;;;;;;;15.32;5.82;;;32.60;61.40;;;;;;7286170;19;20185;-82
2023/05/28 11:10:16;;;;;;;14.13;5.55;;;32.60;63.10;;;;;;7286729;19;20205;-82
2023/05/28 11:12:44;;;;;;;13.25;4.82;;;32.20;61.80;;;;;;7285963;19;20233;-81
2023/05/28 11:15:14;;;;;;;16.38;5.28;;;32.40;63.10;;;;;;7288403;19;20189;-81
2023/05/28 11:17:44;;;;;;;12.55;5.32;;;32.10;62.20;;;;;;7294853;19;20260;-81
2023/05/28 11:20:19;;;;;;;14.27;5.38;;;32.00;63.50;;;;;;7298089;19;20196;-81
2023/05/28 11:22:45;;;;;;;11.55;5.20;;;32.40;63.40;;;;;;7286872;19;20181;-81
2023/05/28 11:25:12;;;;;;;14.18;5.50;;;32.80;62.50;;;;;;7285678;19;20197;-81
2023/05/28 11:27:40;;;;;;;9.90;4.97;;;32.90;60.40;;;;;;7307300;19;20188;-82
2023/05/28 11:30:13;;;;;;;13.15;4.95;;;32.00;62.00;;;;;;7286165;19;20220;-82
2023/05/28 11:32:39;;;;;;;11.63;5.00;;;31.90;60.00;;;;;;7285381;19;20596;-81
2023/05/28 11:35:06;;;;;;;14.43;5.38;;;32.30;62.40;;;;;;7285778;19;20238;-81
2023/05/28 11:37:35;;;;;;;14.82;5.65;;;31.80;61.10;;;;;;7285541;19;20195;-82
2023/05/28 11:40:10;;;;;;;12.38;5.20;;;32.00;61.40;;;;;;7283894;19;20200;-82
2023/05/28 11:42:43;;;;;;;13.27;5.85;;;32.20;62.30;;;;;;7283860;19;20184;-81
2023/05/28 11:45:11;;;;;;;14.20;5.60;;;31.90;61.20;;;;;;7286110;19;20185;-81
2023/05/28 11:47:37;;;;;;;16.50;5.32;;;30.90;63.10;;;;;;7286733;19;20223;-82
2023/05/28 11:50:14;;;;;;;13.48;5.60;;;30.40;66.30;;;;;;7286160;19;20252;-81
2023/05/28 11:52:41;;;;;;;12.30;5.07;;;30.50;64.50;;;;;;7268525;19;20206;-82
2023/05/28 11:55:07;;;;;;;14.55;5.13;;;30.50;63.20;;;;;;7308350;19;20594;-82
2023/05/28 11:57:33;;;;;;;13.88;4.80;;;30.30;63.70;;;;;;7285265;19;20202;-81
2023/05/28 12:00:11;;;;;;;11.07;4.70;;;30.40;65.80;;;;;;7284635;19;20611;-81
2023/05/28 12:02:48;;;;;;;13.23;4.60;;;30.50;63.30;;;;;;7285893;19;20192;-81
2023/05/28 12:05:18;;;;;;;13.15;4.90;;;30.50;64.20;;;;;;7182616;19;2004676;-82
2023/05/28 12:07:49;;;;;;;12.93;4.88;;;30.50;65.00;;;;;;7285766;19;20204;-81
2023/05/28 12:10:20;;;;;;;11.95;4.35;;;29.60;64.00;;;;;;7285586;19;20810;-81
2023/05/28 12:12:51;;;;;;;13.15;4.75;;;28.90;63.40;;;;;;7284451;19;20206;-81
2023/05/28 12:15:20;;;;;;;12.02;5.68;;;28.40;64.80;;;;;;7286032;19;20199;-81
2023/05/28 12:17:51;;;;;;;11.13;4.40;;;28.10;66.50;;;;;;7284821;19;20193;-81
2023/05/28 12:20:16;;;;;;;14.13;4.97;;;27.80;67.70;;;;;;7286388;19;20193;-81
2023/05/28 12:22:43;;;;;;;11.57;4.65;;;27.70;68.20;;;;;;7284914;19;20195;-81
2023/05/28 12:25:09;;;;;;;13.15;4.90;;;27.60;67.60;;;;;;7305167;19;20228;-80
2023/05/28 12:27:36;;;;;;;13.73;5.22;;;27.20;65.60;;;;;;7286262;19;20191;-81
2023/05/28 12:30:05;;;;;;;12.88;4.38;;;26.80;68.20;;;;;;7284616;19;20304;-82
2023/05/28 12:32:31;;;;;;;13.57;5.00;;;26.70;70.40;;;;;;7283942;19;20193;-81
2023/05/28 12:34:57;;;;;;;13.73;4.93;;;26.70;69.00;;;;;;7286159;19;20518;-81
2023/05/28 12:37:23;;;;;;;14.40;5.47;;;26.70;69.00;;;;;;7285291;19;20218;-81
2023/05/28 12:39:53;;;;;;;14.65;6.38;;;26.90;68.30;;;;;;7284365;19;20615;-81
2023/05/28 12:42:19;;;;;;;30.33;18.02;;;26.90;67.90;;;;;;7285329;19;20234;-82
2023/05/28 12:44:44;;;;;;;13.48;6.20;;;26.90;70.10;;;;;;7281795;19;20280;-81